sensor_id;sensor_type;location;lat;lon;timestamp;P1;durP1;ratioP1;P2;durP2;ratioP2
5821;SDS011;2937;48.562;8.022;2023-08-06T00:02:19;5.67;;;3.67;;
5821;SDS011;2937;48.562;8.022;2023-08-06T00:07:13;7.50;;;3.50;;
5821;SDS011;2937;48.562;8.022;2023-08-06T00:12:06;3.60;;;3.20;;
5821;SDS011;2937;48.562;8.022;2023-08-06T00:16:59;3.87;;;3.10;;
5821;SDS011;2937;48.562;8.022;2023-08-06T00:21:52;5.10;;;3.23;;
5821;SDS011;2937;48.562;8.022;2023-08-06T00:26:46;3.60;;;2.70;;
5821;SDS011;2937;48.562;8.022;2023-08-06T00:31:39;5.67;;;2.87;;
5821;SDS011;2937;48.562;8.022;2023-08-06T00:36:31;6.83;;;3.20;;
5821;SDS011;2937;48.562;8.022;2023-08-06T00:41:25;4.17;;;2.80;;
5821;SDS011;2937;48.562;8.022;2023-08-06T00:46:19;5.43;;;3.70;;
5821;SDS011;2937;48.562;8.022;2023-08-06T00:51:11;6.23;;;3.13;;
5821;SDS011;2937;48.562;8.022;2023-08-06T00:56:05;6.90;;;3.13;;
5821;SDS011;2937;48.562;8.022;2023-08-06T01:00:58;6.10;;;3.70;;
5821;SDS011;2937;48.562;8.022;2023-08-06T01:05:53;6.63;;;3.63;;
5821;SDS011;2937;48.562;8.022;2023-08-06T01:10:49;3.50;;;3.17;;
5821;SDS011;2937;48.562;8.022;2023-08-06T01:15:45;5.57;;;3.40;;
5821;SDS011;2937;48.562;8.022;2023-08-06T01:20:39;5.00;;;3.20;;
5821;SDS011;2937;48.562;8.022;2023-08-06T01:25:33;5.37;;;3.40;;
5821;SDS011;2937;48.562;8.022;2023-08-06T01:30:27;4.53;;;3.27;;
5821;SDS011;2937;48.562;8.022;2023-08-06T01:35:21;4.80;;;2.83;;
5821;SDS011;2937;48.562;8.022;2023-08-06T01:40:16;4.20;;;2.97;;
5821;SDS011;2937;48.562;8.022;2023-08-06T01:45:09;5.07;;;3.10;;
5821;SDS011;2937;48.562;8.022;2023-08-06T01:50:02;3.83;;;3.10;;
5821;SDS011;2937;48.562;8.022;2023-08-06T01:54:54;4.30;;;3.30;;
5821;SDS011;2937;48.562;8.022;2023-08-06T01:59:48;6.03;;;3.23;;
5821;SDS011;2937;48.562;8.022;2023-08-06T02:04:41;5.10;;;3.40;;
5821;SDS011;2937;48.562;8.022;2023-08-06T02:09:36;7.07;;;3.63;;
5821;SDS011;2937;48.562;8.022;2023-08-06T02:14:29;8.50;;;3.67;;
5821;SDS011;2937;48.562;8.022;2023-08-06T02:19:23;8.43;;;4.27;;
5821;SDS011;2937;48.562;8.022;2023-08-06T02:24:15;10.40;;;4.23;;
5821;SDS011;2937;48.562;8.022;2023-08-06T02:29:08;7.33;;;4.80;;
5821;SDS011;2937;48.562;8.022;2023-08-06T02:34:00;6.30;;;4.97;;
5821;SDS011;2937;48.562;8.022;2023-08-06T02:38:54;11.30;;;5.37;;
5821;SDS011;2937;48.562;8.022;2023-08-06T02:43:47;10.23;;;5.70;;
5821;SDS011;2937;48.562;8.022;2023-08-06T02:48:40;9.80;;;5.87;;
5821;SDS011;2937;48.562;8.022;2023-08-06T02:53:33;10.67;;;6.30;;
5821;SDS011;2937;48.562;8.022;2023-08-06T02:58:31;12.30;;;6.07;;
5821;SDS011;2937;48.562;8.022;2023-08-06T03:03:44;12.47;;;6.80;;
5821;SDS011;2937;48.562;8.022;2023-08-06T03:08:44;11.60;;;6.97;;
5821;SDS011;2937;48.562;8.022;2023-08-06T03:13:38;14.40;;;6.57;;
5821;SDS011;2937;48.562;8.022;2023-08-06T03:18:31;11.87;;;5.53;;
5821;SDS011;2937;48.562;8.022;2023-08-06T03:23:28;8.57;;;5.43;;
5821;SDS011;2937;48.562;8.022;2023-08-06T03:28:21;7.23;;;4.80;;
5821;SDS011;2937;48.562;8.022;2023-08-06T03:33:16;7.20;;;4.10;;
5821;SDS011;2937;48.562;8.022;2023-08-06T03:38:09;11.50;;;4.37;;
5821;SDS011;2937;48.562;8.022;2023-08-06T03:43:02;9.03;;;4.10;;
5821;SDS011;2937;48.562;8.022;2023-08-06T03:47:55;8.30;;;3.77;;
5821;SDS011;2937;48.562;8.022;2023-08-06T03:52:49;6.13;;;3.23;;
5821;SDS011;2937;48.562;8.022;2023-08-06T03:57:42;6.87;;;3.60;;
5821;SDS011;2937;48.562;8.022;2023-08-06T04:02:35;6.50;;;3.43;;
5821;SDS011;2937;48.562;8.022;2023-08-06T04:07:27;7.77;;;3.30;;
5821;SDS011;2937;48.562;8.022;2023-08-06T04:12:21;3.47;;;3.00;;
5821;SDS011;2937;48.562;8.022;2023-08-06T04:17:14;3.80;;;3.00;;
5821;SDS011;2937;48.562;8.022;2023-08-06T04:22:07;4.60;;;2.77;;
5821;SDS011;2937;48.562;8.022;2023-08-06T04:27:00;6.13;;;2.40;;
5821;SDS011;2937;48.562;8.022;2023-08-06T04:31:54;3.23;;;2.50;;
5821;SDS011;2937;48.562;8.022;2023-08-06T04:36:47;4.47;;;2.30;;
5821;SDS011;2937;48.562;8.022;2023-08-06T04:41:40;3.43;;;1.80;;
5821;SDS011;2937;48.562;8.022;2023-08-06T04:46:33;3.60;;;1.70;;
5821;SDS011;2937;48.562;8.022;2023-08-06T04:51:27;3.97;;;1.60;;
5821;SDS011;2937;48.562;8.022;2023-08-06T04:56:19;1.73;;;1.30;;
5821;SDS011;2937;48.562;8.022;2023-08-06T05:01:12;3.40;;;1.53;;
5821;SDS011;2937;48.562;8.022;2023-08-06T05:06:04;1.70;;;1.27;;
5821;SDS011;2937;48.562;8.022;2023-08-06T05:10:59;2.10;;;1.60;;
5821;SDS011;2937;48.562;8.022;2023-08-06T05:15:53;3.43;;;1.63;;
5821;SDS011;2937;48.562;8.022;2023-08-06T05:20:45;2.00;;;1.80;;
5821;SDS011;2937;48.562;8.022;2023-08-06T05:25:38;4.17;;;2.03;;
5821;SDS011;2937;48.562;8.022;2023-08-06T05:30:32;3.70;;;2.20;;
5821;SDS011;2937;48.562;8.022;2023-08-06T05:35:25;3.47;;;2.40;;
5821;SDS011;2937;48.562;8.022;2023-08-06T05:40:18;3.80;;;2.10;;
5821;SDS011;2937;48.562;8.022;2023-08-06T05:45:10;5.70;;;2.20;;
5821;SDS011;2937;48.562;8.022;2023-08-06T05:50:05;7.00;;;3.00;;
5821;SDS011;2937;48.562;8.022;2023-08-06T05:54:58;3.70;;;2.17;;
5821;SDS011;2937;48.562;8.022;2023-08-06T05:59:50;4.20;;;2.30;;
5821;SDS011;2937;48.562;8.022;2023-08-06T06:04:43;4.70;;;2.43;;
5821;SDS011;2937;48.562;8.022;2023-08-06T06:09:37;6.10;;;2.50;;
5821;SDS011;2937;48.562;8.022;2023-08-06T06:14:30;4.27;;;2.17;;
5821;SDS011;2937;48.562;8.022;2023-08-06T06:19:23;4.67;;;1.90;;
5821;SDS011;2937;48.562;8.022;2023-08-06T06:24:19;3.03;;;2.03;;
5821;SDS011;2937;48.562;8.022;2023-08-06T06:29:13;4.17;;;2.03;;
5821;SDS011;2937;48.562;8.022;2023-08-06T06:34:06;10.63;;;2.50;;
5821;SDS011;2937;48.562;8.022;2023-08-06T06:38:58;6.00;;;2.20;;
5821;SDS011;2937;48.562;8.022;2023-08-06T06:43:51;6.80;;;2.67;;
5821;SDS011;2937;48.562;8.022;2023-08-06T06:48:45;4.37;;;2.00;;
5821;SDS011;2937;48.562;8.022;2023-08-06T06:53:38;3.97;;;2.10;;
5821;SDS011;2937;48.562;8.022;2023-08-06T06:58:31;4.33;;;2.17;;
5821;SDS011;2937;48.562;8.022;2023-08-06T07:03:23;2.90;;;1.70;;
5821;SDS011;2937;48.562;8.022;2023-08-06T07:08:17;5.70;;;2.30;;
5821;SDS011;2937;48.562;8.022;2023-08-06T07:13:10;7.77;;;2.43;;
5821;SDS011;2937;48.562;8.022;2023-08-06T07:18:02;4.00;;;2.20;;
5821;SDS011;2937;48.562;8.022;2023-08-06T07:22:55;3.70;;;2.10;;
5821;SDS011;2937;48.562;8.022;2023-08-06T07:27:49;2.70;;;1.77;;
5821;SDS011;2937;48.562;8.022;2023-08-06T07:32:42;3.20;;;1.63;;
5821;SDS011;2937;48.562;8.022;2023-08-06T07:37:35;7.40;;;1.70;;
5821;SDS011;2937;48.562;8.022;2023-08-06T07:42:27;5.60;;;1.77;;
5821;SDS011;2937;48.562;8.022;2023-08-06T07:47:21;4.30;;;1.40;;
5821;SDS011;2937;48.562;8.022;2023-08-06T07:52:14;4.27;;;1.80;;
5821;SDS011;2937;48.562;8.022;2023-08-06T07:57:07;4.17;;;1.77;;
5821;SDS011;2937;48.562;8.022;2023-08-06T08:02:00;2.13;;;1.40;;
5821;SDS011;2937;48.562;8.022;2023-08-06T08:06:54;3.27;;;2.00;;
5821;SDS011;2937;48.562;8.022;2023-08-06T08:11:47;7.10;;;1.90;;
5821;SDS011;2937;48.562;8.022;2023-08-06T08:16:39;4.50;;;2.07;;
5821;SDS011;2937;48.562;8.022;2023-08-06T08:21:32;4.90;;;1.70;;
5821;SDS011;2937;48.562;8.022;2023-08-06T08:26:26;6.57;;;2.00;;
5821;SDS011;2937;48.562;8.022;2023-08-06T08:31:19;4.53;;;1.80;;
5821;SDS011;2937;48.562;8.022;2023-08-06T08:36:12;7.80;;;2.13;;
5821;SDS011;2937;48.562;8.022;2023-08-06T08:41:05;6.07;;;1.77;;
5821;SDS011;2937;48.562;8.022;2023-08-06T08:45:59;5.27;;;2.53;;
5821;SDS011;2937;48.562;8.022;2023-08-06T08:50:53;4.87;;;1.80;;
5821;SDS011;2937;48.562;8.022;2023-08-06T08:55:46;3.93;;;1.90;;
5821;SDS011;2937;48.562;8.022;2023-08-06T09:00:39;3.77;;;1.80;;
5821;SDS011;2937;48.562;8.022;2023-08-06T09:05:34;6.90;;;2.20;;
5821;SDS011;2937;48.562;8.022;2023-08-06T09:10:27;2.83;;;1.77;;
5821;SDS011;2937;48.562;8.022;2023-08-06T09:15:20;5.47;;;2.20;;
5821;SDS011;2937;48.562;8.022;2023-08-06T09:20:16;1.70;;;1.60;;
5821;SDS011;2937;48.562;8.022;2023-08-06T09:25:10;3.20;;;1.90;;
5821;SDS011;2937;48.562;8.022;2023-08-06T09:30:06;16.10;;;10.47;;
5821;SDS011;2937;48.562;8.022;2023-08-06T09:34:59;2.17;;;1.30;;
5821;SDS011;2937;48.562;8.022;2023-08-06T09:39:52;2.73;;;2.20;;
5821;SDS011;2937;48.562;8.022;2023-08-06T09:44:46;2.40;;;1.50;;
5821;SDS011;2937;48.562;8.022;2023-08-06T09:49:40;1.30;;;1.10;;
5821;SDS011;2937;48.562;8.022;2023-08-06T09:54:33;1.20;;;1.10;;
5821;SDS011;2937;48.562;8.022;2023-08-06T09:59:27;1.33;;;1.20;;
5821;SDS011;2937;48.562;8.022;2023-08-06T10:04:22;1.37;;;1.10;;
5821;SDS011;2937;48.562;8.022;2023-08-06T10:09:23;1.77;;;1.20;;
5821;SDS011;2937;48.562;8.022;2023-08-06T10:14:18;1.10;;;0.90;;
5821;SDS011;2937;48.562;8.022;2023-08-06T10:19:12;1.00;;;0.90;;
5821;SDS011;2937;48.562;8.022;2023-08-06T10:24:07;1.10;;;1.00;;
5821;SDS011;2937;48.562;8.022;2023-08-06T10:29:02;2.43;;;1.13;;
5821;SDS011;2937;48.562;8.022;2023-08-06T10:34:15;1.20;;;1.00;;
5821;SDS011;2937;48.562;8.022;2023-08-06T10:39:14;1.13;;;1.00;;
5821;SDS011;2937;48.562;8.022;2023-08-06T10:44:21;1.43;;;1.00;;
5821;SDS011;2937;48.562;8.022;2023-08-06T10:49:22;1.90;;;1.80;;
5821;SDS011;2937;48.562;8.022;2023-08-06T10:54:17;2.23;;;2.00;;
5821;SDS011;2937;48.562;8.022;2023-08-06T10:59:10;2.57;;;2.13;;
5821;SDS011;2937;48.562;8.022;2023-08-06T11:04:03;3.20;;;2.50;;
5821;SDS011;2937;48.562;8.022;2023-08-06T11:08:56;4.40;;;2.50;;
5821;SDS011;2937;48.562;8.022;2023-08-06T11:13:51;5.70;;;2.70;;
5821;SDS011;2937;48.562;8.022;2023-08-06T11:18:44;3.00;;;2.37;;
5821;SDS011;2937;48.562;8.022;2023-08-06T11:23:37;3.40;;;2.70;;
5821;SDS011;2937;48.562;8.022;2023-08-06T11:28:30;3.40;;;2.70;;
5821;SDS011;2937;48.562;8.022;2023-08-06T11:33:24;3.40;;;2.77;;
5821;SDS011;2937;48.562;8.022;2023-08-06T11:38:18;4.33;;;2.73;;
5821;SDS011;2937;48.562;8.022;2023-08-06T11:43:10;3.13;;;2.83;;
5821;SDS011;2937;48.562;8.022;2023-08-06T11:48:03;2.93;;;2.63;;
5821;SDS011;2937;48.562;8.022;2023-08-06T11:52:58;3.63;;;2.73;;
5821;SDS011;2937;48.562;8.022;2023-08-06T11:57:51;2.43;;;2.23;;
5821;SDS011;2937;48.562;8.022;2023-08-06T12:02:45;2.40;;;2.20;;
5821;SDS011;2937;48.562;8.022;2023-08-06T12:07:38;2.10;;;1.90;;
5821;SDS011;2937;48.562;8.022;2023-08-06T12:12:32;6.43;;;4.23;;
5821;SDS011;2937;48.562;8.022;2023-08-06T12:17:25;1.90;;;1.70;;
5821;SDS011;2937;48.562;8.022;2023-08-06T12:22:18;1.53;;;1.30;;
5821;SDS011;2937;48.562;8.022;2023-08-06T12:27:15;1.60;;;1.40;;
5821;SDS011;2937;48.562;8.022;2023-08-06T12:32:09;2.13;;;1.27;;
5821;SDS011;2937;48.562;8.022;2023-08-06T12:37:02;1.23;;;1.13;;
5821;SDS011;2937;48.562;8.022;2023-08-06T12:41:54;2.07;;;1.17;;
5821;SDS011;2937;48.562;8.022;2023-08-06T12:46:57;2.37;;;1.90;;
5821;SDS011;2937;48.562;8.022;2023-08-06T12:51:51;2.50;;;2.20;;
5821;SDS011;2937;48.562;8.022;2023-08-06T12:56:45;1.50;;;1.40;;
5821;SDS011;2937;48.562;8.022;2023-08-06T13:01:38;2.30;;;2.10;;
5821;SDS011;2937;48.562;8.022;2023-08-06T13:06:31;2.10;;;1.53;;
5821;SDS011;2937;48.562;8.022;2023-08-06T13:11:28;2.20;;;1.70;;
5821;SDS011;2937;48.562;8.022;2023-08-06T13:16:21;2.27;;;1.30;;
5821;SDS011;2937;48.562;8.022;2023-08-06T13:21:14;4.20;;;1.90;;
5821;SDS011;2937;48.562;8.022;2023-08-06T13:26:07;4.00;;;1.80;;
5821;SDS011;2937;48.562;8.022;2023-08-06T13:31:01;1.90;;;1.50;;
5821;SDS011;2937;48.562;8.022;2023-08-06T13:35:54;1.83;;;1.73;;
5821;SDS011;2937;48.562;8.022;2023-08-06T13:40:46;1.97;;;1.77;;
5821;SDS011;2937;48.562;8.022;2023-08-06T13:45:40;3.73;;;1.83;;
5821;SDS011;2937;48.562;8.022;2023-08-06T13:50:34;2.80;;;1.97;;
5821;SDS011;2937;48.562;8.022;2023-08-06T13:55:28;1.77;;;1.60;;
5821;SDS011;2937;48.562;8.022;2023-08-06T14:00:21;2.17;;;1.80;;
5821;SDS011;2937;48.562;8.022;2023-08-06T14:05:14;2.00;;;1.80;;
5821;SDS011;2937;48.562;8.022;2023-08-06T14:10:08;1.80;;;1.70;;
5821;SDS011;2937;48.562;8.022;2023-08-06T14:15:01;2.27;;;1.47;;
5821;SDS011;2937;48.562;8.022;2023-08-06T14:19:54;1.80;;;1.40;;
5821;SDS011;2937;48.562;8.022;2023-08-06T14:24:47;2.17;;;1.63;;
5821;SDS011;2937;48.562;8.022;2023-08-06T14:29:41;3.40;;;1.87;;
5821;SDS011;2937;48.562;8.022;2023-08-06T14:34:34;1.57;;;1.30;;
5821;SDS011;2937;48.562;8.022;2023-08-06T14:39:26;1.90;;;1.50;;
5821;SDS011;2937;48.562;8.022;2023-08-06T14:44:19;1.83;;;1.57;;
5821;SDS011;2937;48.562;8.022;2023-08-06T14:49:13;1.80;;;1.50;;
5821;SDS011;2937;48.562;8.022;2023-08-06T14:54:06;2.73;;;1.70;;
5821;SDS011;2937;48.562;8.022;2023-08-06T14:58:58;3.47;;;1.73;;
5821;SDS011;2937;48.562;8.022;2023-08-06T15:03:52;4.30;;;1.90;;
5821;SDS011;2937;48.562;8.022;2023-08-06T15:08:46;2.03;;;1.83;;
5821;SDS011;2937;48.562;8.022;2023-08-06T15:13:39;2.93;;;1.90;;
5821;SDS011;2937;48.562;8.022;2023-08-06T15:18:32;2.50;;;1.70;;
5821;SDS011;2937;48.562;8.022;2023-08-06T15:23:25;3.20;;;1.80;;
5821;SDS011;2937;48.562;8.022;2023-08-06T15:28:19;2.73;;;1.60;;
5821;SDS011;2937;48.562;8.022;2023-08-06T15:33:12;2.50;;;1.63;;
5821;SDS011;2937;48.562;8.022;2023-08-06T15:38:05;2.93;;;1.60;;
5821;SDS011;2937;48.562;8.022;2023-08-06T15:42:57;2.20;;;1.43;;
5821;SDS011;2937;48.562;8.022;2023-08-06T15:47:52;3.20;;;1.60;;
5821;SDS011;2937;48.562;8.022;2023-08-06T15:52:44;2.10;;;1.90;;
5821;SDS011;2937;48.562;8.022;2023-08-06T15:57:37;2.20;;;1.90;;
5821;SDS011;2937;48.562;8.022;2023-08-06T16:02:30;3.27;;;1.90;;
5821;SDS011;2937;48.562;8.022;2023-08-06T16:07:24;4.03;;;3.20;;
5821;SDS011;2937;48.562;8.022;2023-08-06T16:12:17;2.13;;;1.80;;
5821;SDS011;2937;48.562;8.022;2023-08-06T16:17:11;5.37;;;2.00;;
5821;SDS011;2937;48.562;8.022;2023-08-06T16:22:04;2.20;;;1.90;;
5821;SDS011;2937;48.562;8.022;2023-08-06T16:26:58;3.23;;;2.03;;
5821;SDS011;2937;48.562;8.022;2023-08-06T16:31:51;2.47;;;2.10;;
5821;SDS011;2937;48.562;8.022;2023-08-06T16:36:44;4.13;;;2.33;;
5821;SDS011;2937;48.562;8.022;2023-08-06T16:41:37;3.80;;;2.00;;
5821;SDS011;2937;48.562;8.022;2023-08-06T16:46:31;2.60;;;2.10;;
5821;SDS011;2937;48.562;8.022;2023-08-06T16:51:25;2.50;;;2.30;;
5821;SDS011;2937;48.562;8.022;2023-08-06T16:56:18;3.33;;;2.77;;
5821;SDS011;2937;48.562;8.022;2023-08-06T17:01:11;4.13;;;2.73;;
5821;SDS011;2937;48.562;8.022;2023-08-06T17:06:05;2.90;;;2.60;;
5821;SDS011;2937;48.562;8.022;2023-08-06T17:10:57;3.20;;;2.57;;
5821;SDS011;2937;48.562;8.022;2023-08-06T17:15:51;3.27;;;2.80;;
5821;SDS011;2937;48.562;8.022;2023-08-06T17:20:44;4.57;;;3.40;;
5821;SDS011;2937;48.562;8.022;2023-08-06T17:25:40;3.50;;;2.20;;
5821;SDS011;2937;48.562;8.022;2023-08-06T17:30:33;3.47;;;2.53;;
5821;SDS011;2937;48.562;8.022;2023-08-06T17:35:26;3.60;;;2.33;;
5821;SDS011;2937;48.562;8.022;2023-08-06T17:40:21;3.37;;;2.80;;
5821;SDS011;2937;48.562;8.022;2023-08-06T17:45:16;6.90;;;4.20;;
5821;SDS011;2937;48.562;8.022;2023-08-06T17:50:09;4.50;;;3.30;;
5821;SDS011;2937;48.562;8.022;2023-08-06T17:55:01;3.60;;;2.87;;
5821;SDS011;2937;48.562;8.022;2023-08-06T17:59:55;4.87;;;2.30;;
5821;SDS011;2937;48.562;8.022;2023-08-06T18:04:49;2.30;;;2.00;;
5821;SDS011;2937;48.562;8.022;2023-08-06T18:09:42;3.60;;;2.10;;
5821;SDS011;2937;48.562;8.022;2023-08-06T18:14:35;3.40;;;1.97;;
5821;SDS011;2937;48.562;8.022;2023-08-06T18:19:28;5.60;;;2.40;;
5821;SDS011;2937;48.562;8.022;2023-08-06T18:24:22;2.30;;;1.90;;
5821;SDS011;2937;48.562;8.022;2023-08-06T18:29:15;2.60;;;2.33;;
5821;SDS011;2937;48.562;8.022;2023-08-06T18:34:08;2.90;;;2.20;;
5821;SDS011;2937;48.562;8.022;2023-08-06T18:39:01;5.00;;;2.17;;
5821;SDS011;2937;48.562;8.022;2023-08-06T18:43:55;8.17;;;3.27;;
5821;SDS011;2937;48.562;8.022;2023-08-06T18:48:48;3.60;;;2.17;;
5821;SDS011;2937;48.562;8.022;2023-08-06T18:53:40;2.40;;;2.00;;
5821;SDS011;2937;48.562;8.022;2023-08-06T18:58:33;2.30;;;2.00;;
5821;SDS011;2937;48.562;8.022;2023-08-06T19:03:27;2.60;;;1.90;;
5821;SDS011;2937;48.562;8.022;2023-08-06T19:08:21;2.93;;;1.83;;
5821;SDS011;2937;48.562;8.022;2023-08-06T19:13:14;2.30;;;1.87;;
5821;SDS011;2937;48.562;8.022;2023-08-06T19:18:06;3.03;;;1.90;;
5821;SDS011;2937;48.562;8.022;2023-08-06T19:23:00;2.10;;;1.80;;
5821;SDS011;2937;48.562;8.022;2023-08-06T19:27:53;2.67;;;2.10;;
5821;SDS011;2937;48.562;8.022;2023-08-06T19:32:46;2.87;;;2.00;;
5821;SDS011;2937;48.562;8.022;2023-08-06T19:37:39;3.20;;;2.47;;
5821;SDS011;2937;48.562;8.022;2023-08-06T19:42:33;3.87;;;2.20;;
5821;SDS011;2937;48.562;8.022;2023-08-06T19:47:25;2.80;;;2.13;;
5821;SDS011;2937;48.562;8.022;2023-08-06T19:52:18;3.43;;;2.47;;
5821;SDS011;2937;48.562;8.022;2023-08-06T19:57:11;3.60;;;2.60;;
5821;SDS011;2937;48.562;8.022;2023-08-06T20:02:05;7.87;;;2.83;;
5821;SDS011;2937;48.562;8.022;2023-08-06T20:06:57;5.10;;;2.70;;
5821;SDS011;2937;48.562;8.022;2023-08-06T20:11:50;4.00;;;2.40;;
5821;SDS011;2937;48.562;8.022;2023-08-06T20:16:43;5.90;;;2.27;;
5821;SDS011;2937;48.562;8.022;2023-08-06T20:21:37;3.70;;;2.50;;
5821;SDS011;2937;48.562;8.022;2023-08-06T20:26:30;3.60;;;2.40;;
5821;SDS011;2937;48.562;8.022;2023-08-06T20:31:23;3.13;;;2.47;;
5821;SDS011;2937;48.562;8.022;2023-08-06T20:36:15;3.70;;;2.30;;
5821;SDS011;2937;48.562;8.022;2023-08-06T20:41:10;3.13;;;2.40;;
5821;SDS011;2937;48.562;8.022;2023-08-06T20:46:02;4.00;;;2.33;;
5821;SDS011;2937;48.562;8.022;2023-08-06T20:50:56;3.83;;;2.50;;
5821;SDS011;2937;48.562;8.022;2023-08-06T20:55:56;4.97;;;2.77;;
5821;SDS011;2937;48.562;8.022;2023-08-06T21:00:51;5.67;;;2.73;;
5821;SDS011;2937;48.562;8.022;2023-08-06T21:05:43;4.80;;;2.60;;
5821;SDS011;2937;48.562;8.022;2023-08-06T21:10:36;3.60;;;2.73;;
5821;SDS011;2937;48.562;8.022;2023-08-06T21:15:29;2.40;;;2.20;;
5821;SDS011;2937;48.562;8.022;2023-08-06T21:20:23;3.33;;;2.23;;
5821;SDS011;2937;48.562;8.022;2023-08-06T21:25:15;3.90;;;2.20;;
5821;SDS011;2937;48.562;8.022;2023-08-06T21:30:08;4.60;;;2.53;;
5821;SDS011;2937;48.562;8.022;2023-08-06T21:35:04;4.80;;;2.50;;
5821;SDS011;2937;48.562;8.022;2023-08-06T21:40:00;2.90;;;2.60;;
5821;SDS011;2937;48.562;8.022;2023-08-06T21:44:54;5.67;;;2.70;;
5821;SDS011;2937;48.562;8.022;2023-08-06T21:49:48;5.47;;;2.70;;
5821;SDS011;2937;48.562;8.022;2023-08-06T21:54:41;4.70;;;2.97;;
5821;SDS011;2937;48.562;8.022;2023-08-06T21:59:35;3.30;;;2.43;;
5821;SDS011;2937;48.562;8.022;2023-08-06T22:04:28;4.37;;;2.70;;
5821;SDS011;2937;48.562;8.022;2023-08-06T22:09:20;3.20;;;2.50;;
5821;SDS011;2937;48.562;8.022;2023-08-06T22:14:13;4.60;;;2.60;;
5821;SDS011;2937;48.562;8.022;2023-08-06T22:19:07;5.73;;;2.60;;
5821;SDS011;2937;48.562;8.022;2023-08-06T22:24:00;3.80;;;2.57;;
5821;SDS011;2937;48.562;8.022;2023-08-06T22:28:52;3.40;;;2.60;;
5821;SDS011;2937;48.562;8.022;2023-08-06T22:33:52;2.90;;;2.20;;
5821;SDS011;2937;48.562;8.022;2023-08-06T22:38:46;3.47;;;2.60;;
5821;SDS011;2937;48.562;8.022;2023-08-06T22:43:39;4.17;;;2.70;;
5821;SDS011;2937;48.562;8.022;2023-08-06T22:48:32;4.93;;;2.40;;
5821;SDS011;2937;48.562;8.022;2023-08-06T22:53:24;3.70;;;2.60;;
5821;SDS011;2937;48.562;8.022;2023-08-06T22:58:18;2.90;;;2.20;;
5821;SDS011;2937;48.562;8.022;2023-08-06T23:03:11;3.10;;;2.47;;
5821;SDS011;2937;48.562;8.022;2023-08-06T23:08:04;3.20;;;2.27;;
5821;SDS011;2937;48.562;8.022;2023-08-06T23:12:57;3.70;;;2.60;;
5821;SDS011;2937;48.562;8.022;2023-08-06T23:17:51;2.63;;;2.20;;
5821;SDS011;2937;48.562;8.022;2023-08-06T23:22:44;3.33;;;2.50;;
5821;SDS011;2937;48.562;8.022;2023-08-06T23:27:36;3.37;;;2.60;;
5821;SDS011;2937;48.562;8.022;2023-08-06T23:32:29;5.30;;;2.17;;
5821;SDS011;2937;48.562;8.022;2023-08-06T23:37:24;4.73;;;2.40;;
5821;SDS011;2937;48.562;8.022;2023-08-06T23:42:17;2.80;;;2.27;;
5821;SDS011;2937;48.562;8.022;2023-08-06T23:47:10;3.73;;;2.40;;
5821;SDS011;2937;48.562;8.022;2023-08-06T23:52:03;4.07;;;2.20;;
5821;SDS011;2937;48.562;8.022;2023-08-06T23:56:57;5.00;;;2.53;;
